Terminal Aerodrome Forecast
Issued by NWS

Home | Current Version | Previous Version | Text Only | Print | Product List | Glossary On
Versions: 1 2 3 4 5 6 7 8 9 10 11 12 13 14 15 16 17 18 19 20 21 22 23 24 25 26 27 28 29 30 31 32 33 34
000
FTUS45 KSLC 291120
TAFSGU
TAF
KSGU 291120Z 2912/3012 12006KT P6SM SCT080 BKN140
     FM291800 22012KT P6SM FEW080 BKN140
     FM300500 VRB04KT P6SM SCT140
      AMD LTD TO CLD VIS AND WIND=

USA.gov is the U.S. government's official web portal to all federal, state and local government web resources and services.